Time;durP1;ratioP1;P1;durP2;ratioP2;P2;SDS_P1;SDS_P2;PMS_P1;PMS_P2;Temp;Humidity;BMP_temperature;BMP_pressure;BME280_temperature;BME280_humidity;BME280_pressure;Samples;Min_cycle;Max_cycle;Signal;HPM_P1;HPM_P2
2021/12/05 00:22:48;;;;;;;3.30;1.93;;;5.20;99.90;;;;;;4971426;28;20458;-78
2021/12/05 00:25:28;;;;;;;1.93;1.73;;;5.00;99.90;;;;;;4978673;28;20521;-78
2021/12/05 00:28:19;;;;;;;1.90;1.80;;;4.90;99.90;;;;;;4939490;29;20416;-78
2021/12/05 00:33:49;;;;;;;4.70;2.90;;;4.80;99.90;;;;;;4920258;29;20394;-78
2021/12/05 00:39:37;;;;;;;12.00;2.73;;;5.00;99.90;;;;;;4925575;29;20541;-78
2021/12/05 00:42:07;;;;;;;3.93;2.20;;;4.90;99.90;;;;;;4938393;28;20431;-78
2021/12/05 00:55:48;;;;;;;1.93;1.83;;;4.90;99.90;;;;;;4926436;29;20485;-79
2021/12/05 01:04:27;;;;;;;2.93;1.70;;;4.80;99.90;;;;;;4972822;28;20358;-78
2021/12/05 01:06:58;;;;;;;2.40;1.70;;;4.80;99.90;;;;;;4960631;28;20530;-78
2021/12/05 01:09:32;;;;;;;2.07;1.77;;;4.80;99.90;;;;;;4959024;28;20510;-78
2021/12/05 01:12:15;;;;;;;1.70;1.60;;;4.80;99.90;;;;;;4972511;28;20370;-78
2021/12/05 01:15:03;;;;;;;2.50;1.80;;;4.70;99.90;;;;;;4966376;28;20415;-78
2021/12/05 01:17:39;;;;;;;2.03;1.93;;;4.80;99.90;;;;;;5005785;28;20463;-78
2021/12/05 01:20:12;;;;;;;1.70;1.60;;;4.80;99.90;;;;;;4977969;28;20917;-78
2021/12/05 01:22:44;;;;;;;1.80;1.70;;;4.50;99.90;;;;;;4963091;28;20509;-78
2021/12/05 01:27:59;;;;;;;1.83;1.57;;;4.40;99.90;;;;;;4946373;29;20764;-79
2021/12/05 01:30:38;;;;;;;9.00;2.43;;;4.30;99.90;;;;;;4963717;28;20470;-78
2021/12/05 01:36:04;;;;;;;3.30;1.30;;;4.20;99.90;;;;;;4951386;28;20406;-78
2021/12/05 01:38:56;;;;;;;3.20;1.80;;;4.30;99.90;;;;;;4952174;28;20792;-78
2021/12/05 01:52:33;;;;;;;2.50;2.00;;;4.30;99.90;;;;;;4987281;28;20401;-78
2021/12/05 01:55:21;;;;;;;2.37;2.13;;;4.30;99.90;;;;;;4917014;28;20426;-78
2021/12/05 01:58:40;;;;;;;1.50;1.40;;;4.10;99.90;;;;;;4960359;29;20465;-78
2021/12/05 02:09:27;;;;;;;2.20;1.73;;;4.10;99.90;;;;;;4941717;29;20439;-78
2021/12/05 02:12:10;;;;;;;2.10;2.00;;;4.10;99.90;;;;;;4940805;29;20503;-78
2021/12/05 02:31:13;;;;;;;3.33;1.93;;;4.10;99.90;;;;;;4960970;28;20410;-78
2021/12/05 02:36:50;;;;;;;4.43;1.93;;;4.00;99.90;;;;;;4979410;28;20401;-78
2021/12/05 02:41:55;;;;;;;2.33;2.03;;;4.00;99.90;;;;;;4998363;28;20457;-78
2021/12/05 02:44:25;;;;;;;2.37;2.00;;;4.10;99.90;;;;;;4998537;28;20823;-79
2021/12/05 02:47:04;;;;;;;2.10;1.97;;;4.30;99.90;;;;;;4998511;28;20461;-79
2021/12/05 02:49:34;;;;;;;2.00;1.90;;;4.40;99.90;;;;;;4980230;28;20406;-78
2021/12/05 02:52:05;;;;;;;4.97;2.20;;;4.50;99.90;;;;;;4979868;28;20414;-78
2021/12/05 02:54:37;;;;;;;1.77;1.60;;;4.50;99.90;;;;;;4979720;28;20391;-79
2021/12/05 02:57:09;;;;;;;2.70;1.77;;;4.20;99.90;;;;;;4992874;28;20441;-78
2021/12/05 02:59:49;;;;;;;1.70;1.60;;;4.30;99.90;;;;;;4998766;28;20420;-77
2021/12/05 03:02:18;;;;;;;4.63;2.23;;;4.20;99.90;;;;;;4982216;28;20617;-78
2021/12/05 03:04:48;;;;;;;7.40;2.23;;;4.30;99.90;;;;;;4983143;28;20492;-78
2021/12/05 03:07:18;;;;;;;3.20;1.83;;;4.10;99.90;;;;;;4999220;28;20464;-78
2021/12/05 03:09:46;;;;;;;2.33;1.90;;;4.20;99.90;;;;;;4982492;28;20426;-78
2021/12/05 03:12:18;;;;;;;3.67;3.47;;;4.20;99.90;;;;;;5014763;28;20436;-78
2021/12/05 03:14:48;;;;;;;2.67;2.40;;;4.20;99.90;;;;;;5014809;28;20421;-78
2021/12/05 03:17:18;;;;;;;3.40;2.37;;;4.40;99.90;;;;;;4982869;28;20431;-78
2021/12/05 03:19:46;;;;;;;2.27;2.10;;;4.50;99.90;;;;;;4983310;28;20798;-78
2021/12/05 03:22:12;;;;;;;1.93;1.80;;;4.50;99.90;;;;;;4982692;28;20429;-78
2021/12/05 03:24:38;;;;;;;3.27;2.27;;;4.40;99.90;;;;;;4999173;28;20154;-78
2021/12/05 03:27:04;;;;;;;1.60;1.50;;;4.50;99.90;;;;;;4972296;28;20501;-78
2021/12/05 03:29:32;;;;;;;2.60;2.17;;;4.60;99.90;;;;;;5021454;28;20508;-78
2021/12/05 03:31:58;;;;;;;1.80;1.70;;;4.70;99.90;;;;;;5017876;28;20387;-78
2021/12/05 03:34:27;;;;;;;1.47;1.37;;;4.60;99.90;;;;;;5018098;28;20387;-78
2021/12/05 03:36:57;;;;;;;2.47;2.03;;;4.70;99.90;;;;;;4971238;28;20400;-78
2021/12/05 03:39:23;;;;;;;1.77;1.67;;;4.70;99.90;;;;;;5002843;28;20395;-78
2021/12/05 03:41:52;;;;;;;3.00;2.10;;;4.70;99.90;;;;;;4985998;28;20795;-78
2021/12/05 03:44:20;;;;;;;1.87;1.77;;;4.70;99.90;;;;;;4978477;28;20392;-78
2021/12/05 03:46:49;;;;;;;2.60;2.10;;;4.70;99.90;;;;;;4995819;28;20877;-78
2021/12/05 03:49:16;;;;;;;12.17;3.47;;;4.60;99.90;;;;;;4978795;28;20384;-78
2021/12/05 03:51:48;;;;;;;3.30;2.10;;;4.60;99.90;;;;;;4939318;29;20510;-78
2021/12/05 03:54:20;;;;;;;2.23;1.30;;;4.70;99.90;;;;;;4939849;29;20915;-78
2021/12/05 03:56:50;;;;;;;2.87;2.63;;;4.60;99.90;;;;;;4940248;29;20387;-78
2021/12/05 03:59:17;;;;;;;2.13;1.87;;;4.60;99.90;;;;;;4939137;29;20818;-78
2021/12/05 04:01:44;;;;;;;7.40;2.87;;;4.60;99.90;;;;;;4958870;28;20381;-78
2021/12/05 04:04:12;;;;;;;2.33;2.13;;;4.60;99.90;;;;;;4963568;29;20485;-78
2021/12/05 04:06:40;;;;;;;1.73;1.53;;;4.40;99.90;;;;;;4928915;29;20396;-79
2021/12/05 04:09:10;;;;;;;6.83;3.23;;;4.20;99.90;;;;;;4945257;29;20788;-79
2021/12/05 04:11:43;;;;;;;4.90;2.20;;;4.30;99.90;;;;;;4944215;29;20394;-79
2021/12/05 04:14:11;;;;;;;4.50;1.90;;;4.20;99.90;;;;;;4924017;29;20477;-78
2021/12/05 04:16:41;;;;;;;1.83;1.67;;;4.00;99.90;;;;;;4921349;29;20446;-79
2021/12/05 04:19:07;;;;;;;3.03;1.77;;;4.00;99.90;;;;;;4939941;29;20476;-78
2021/12/05 04:21:36;;;;;;;9.80;1.70;;;4.00;99.90;;;;;;4944496;29;20878;-78
2021/12/05 04:24:05;;;;;;;4.20;1.73;;;3.90;99.90;;;;;;4951745;29;20370;-77
2021/12/05 04:26:31;;;;;;;4.63;2.70;;;3.80;99.90;;;;;;4978730;28;20416;-78
2021/12/05 04:28:59;;;;;;;3.53;1.90;;;3.60;99.90;;;;;;4957682;29;20415;-78
2021/12/05 04:31:25;;;;;;;2.33;1.80;;;3.70;99.90;;;;;;4958110;29;20393;-78
2021/12/05 04:33:51;;;;;;;2.23;2.03;;;3.50;99.90;;;;;;4922798;29;20399;-78
2021/12/05 04:36:19;;;;;;;2.33;2.10;;;3.50;99.90;;;;;;4906886;29;20405;-78
2021/12/05 04:38:46;;;;;;;1.73;1.63;;;3.20;99.90;;;;;;4922587;29;20491;-78
2021/12/05 04:41:15;;;;;;;2.33;2.00;;;3.20;99.90;;;;;;4939190;29;20405;-78
2021/12/05 04:43:41;;;;;;;2.67;2.50;;;3.20;99.90;;;;;;4923204;29;20390;-78
2021/12/05 04:46:16;;;;;;;1.80;1.50;;;3.30;99.90;;;;;;4922268;29;20748;-78
2021/12/05 04:48:47;;;;;;;3.00;2.00;;;3.30;99.90;;;;;;4935963;29;20402;-78
2021/12/05 04:51:14;;;;;;;3.20;1.77;;;3.20;99.90;;;;;;4946126;29;20834;-78
2021/12/05 04:53:41;;;;;;;7.30;1.73;;;3.20;99.90;;;;;;4942521;28;20525;-78
2021/12/05 04:56:10;;;;;;;3.10;1.70;;;3.00;99.90;;;;;;4943195;29;20828;-78
2021/12/05 04:58:39;;;;;;;3.10;2.80;;;3.00;99.90;;;;;;4962572;28;20472;-78
2021/12/05 05:01:06;;;;;;;1.80;1.70;;;3.00;99.90;;;;;;4977938;28;20457;-78
2021/12/05 05:03:37;;;;;;;1.73;1.63;;;3.30;99.90;;;;;;4966292;28;20401;-78
2021/12/05 05:06:10;;;;;;;3.17;2.27;;;3.10;99.90;;;;;;5006026;28;20399;-78
2021/12/05 05:08:36;;;;;;;1.63;1.53;;;3.10;99.90;;;;;;5001762;28;20401;-78
2021/12/05 05:11:07;;;;;;;3.00;2.57;;;3.00;99.90;;;;;;5008734;28;20472;-78
2021/12/05 05:13:35;;;;;;;8.20;1.70;;;3.00;99.90;;;;;;4993381;28;20427;-78
2021/12/05 05:16:04;;;;;;;3.47;1.37;;;3.00;99.90;;;;;;4969519;28;20442;-78
2021/12/05 05:18:40;;;;;;;3.03;2.37;;;3.00;99.90;;;;;;4986979;28;20472;-78
2021/12/05 05:21:15;;;;;;;3.20;1.30;;;3.10;99.90;;;;;;4949480;28;20465;-78
2021/12/05 05:23:59;;;;;;;1.90;1.80;;;3.00;99.90;;;;;;4941789;29;20434;-78
2021/12/05 05:26:49;;;;;;;1.70;1.60;;;3.20;99.90;;;;;;4913333;29;20450;-78
2021/12/05 05:29:42;;;;;;;1.97;1.63;;;3.10;99.90;;;;;;4917479;29;20411;-78
2021/12/05 05:40:30;;;;;;;2.13;1.93;;;3.10;99.90;;;;;;4904644;29;20919;-78
2021/12/05 05:46:01;;;;;;;1.93;1.77;;;3.00;99.90;;;;;;4904357;29;20398;-78
2021/12/05 05:48:40;;;;;;;6.07;2.10;;;3.00;99.90;;;;;;4939881;28;20423;-78
2021/12/05 05:51:09;;;;;;;5.90;2.17;;;3.00;99.90;;;;;;4979179;28;20388;-78
2021/12/05 05:53:36;;;;;;;1.73;1.63;;;3.00;99.90;;;;;;4943965;29;20461;-78
2021/12/05 05:56:14;;;;;;;4.03;2.30;;;3.20;99.90;;;;;;4943921;29;20411;-78
2021/12/05 05:58:56;;;;;;;9.60;3.43;;;3.20;99.90;;;;;;4944364;29;20509;-78
2021/12/05 06:01:58;;;;;;;6.30;3.00;;;3.00;99.90;;;;;;4931758;29;20502;-77
2021/12/05 06:04:11;;;;;;;3.03;2.63;;;3.00;99.90;;;;;;4959304;29;20906;-78
2021/12/05 06:06:37;;;;;;;3.30;3.00;;;3.00;99.90;;;;;;4940346;29;20872;-78
2021/12/05 06:09:05;;;;;;;4.23;1.80;;;3.00;99.90;;;;;;4924562;29;20436;-77
2021/12/05 06:11:32;;;;;;;4.43;2.63;;;2.90;99.90;;;;;;4925032;29;20499;-78
2021/12/05 06:13:58;;;;;;;6.50;2.47;;;3.00;99.90;;;;;;4944762;29;20802;-79
2021/12/05 06:16:24;;;;;;;7.23;2.50;;;3.00;99.90;;;;;;4928916;29;20390;-79
2021/12/05 06:18:50;;;;;;;8.20;1.97;;;3.00;99.90;;;;;;4944327;29;20219;-79
2021/12/05 06:21:16;;;;;;;2.97;2.40;;;3.00;99.90;;;;;;4933390;29;20229;-80
2021/12/05 06:23:43;;;;;;;2.33;2.17;;;3.00;99.90;;;;;;4969687;28;20730;-79
2021/12/05 06:26:19;;;;;;;1.70;1.60;;;2.80;99.90;;;;;;4986284;28;20472;-79
2021/12/05 06:29:02;;;;;;;3.60;2.60;;;2.80;99.90;;;;;;4985057;28;20471;-78
2021/12/05 06:40:03;;;;;;;2.70;2.50;;;2.80;99.90;;;;;;5030250;28;20443;-79
2021/12/05 06:47:49;;;;;;;3.73;2.20;;;2.70;99.90;;;;;;5044693;28;20399;-79
2021/12/05 06:50:15;;;;;;;8.20;2.47;;;2.80;99.90;;;;;;5024634;28;20722;-79
2021/12/05 06:52:48;;;;;;;2.33;2.17;;;2.70;99.90;;;;;;5004895;28;20204;-79
2021/12/05 06:55:15;;;;;;;1.80;1.70;;;2.60;99.90;;;;;;5000740;28;20904;-79
2021/12/05 06:57:43;;;;;;;2.60;2.33;;;2.70;99.90;;;;;;4967276;28;20945;-79
2021/12/05 07:00:14;;;;;;;2.23;2.03;;;2.60;99.90;;;;;;4982693;28;20413;-79
2021/12/05 07:02:42;;;;;;;2.90;2.57;;;2.60;99.90;;;;;;4982542;28;20418;-79
2021/12/05 07:05:35;;;;;;;2.40;2.20;;;2.60;99.90;;;;;;4977008;28;20437;-79
2021/12/05 07:07:54;;;;;;;2.60;1.87;;;2.70;99.90;;;;;;4982447;28;20499;-79
2021/12/05 07:10:21;;;;;;;3.90;2.37;;;2.60;99.90;;;;;;4973301;28;20416;-79
2021/12/05 07:15:43;;;;;;;2.17;1.97;;;2.50;99.90;;;;;;4969697;28;20821;-79
2021/12/05 07:21:15;;;;;;;2.50;2.40;;;2.40;99.90;;;;;;4978159;28;20452;-79
2021/12/05 07:24:07;;;;;;;2.13;1.93;;;2.60;99.90;;;;;;4947265;28;20431;-79
2021/12/05 07:26:50;;;;;;;4.60;2.90;;;2.60;99.90;;;;;;4955440;28;20433;-79
2021/12/05 07:40:25;;;;;;;13.17;2.80;;;2.70;99.90;;;;;;4966035;28;20882;-79
2021/12/05 07:43:00;;;;;;;5.70;3.70;;;2.80;99.90;;;;;;4964698;28;20428;-79
2021/12/05 07:45:42;;;;;;;5.13;2.90;;;2.70;99.90;;;;;;4957264;28;20474;-79
2021/12/05 07:48:12;;;;;;;11.93;4.47;;;2.70;99.90;;;;;;4958419;28;20458;-79
2021/12/05 07:50:49;;;;;;;2.60;2.40;;;2.80;99.90;;;;;;4946181;28;20390;-79
2021/12/05 07:53:26;;;;;;;2.40;2.23;;;2.40;99.90;;;;;;4963532;28;20383;-80
2021/12/05 07:55:55;;;;;;;2.80;2.53;;;2.30;99.90;;;;;;4994997;28;20491;-79
2021/12/05 07:58:43;;;;;;;2.93;2.60;;;2.20;99.90;;;;;;4966840;28;20455;-79
2021/12/05 08:14:21;;;;;;;4.53;4.13;;;2.30;99.90;;;;;;4997595;28;20424;-78
2021/12/05 08:14:53;;;;;;;4.03;3.73;;;3.30;99.90;;;;;;5033141;28;20371;-78
2021/12/05 08:17:20;;;;;;;3.53;3.23;;;3.50;99.90;;;;;;5028886;28;20480;-79
2021/12/05 08:19:49;;;;;;;3.17;2.77;;;3.70;99.90;;;;;;4981991;28;20547;-79
2021/12/05 08:22:16;;;;;;;18.33;3.97;;;4.40;99.90;;;;;;4982325;28;20484;-79
2021/12/05 08:24:46;;;;;;;6.40;3.80;;;4.70;99.90;;;;;;4999189;28;20954;-79
2021/12/05 08:27:14;;;;;;;4.60;2.90;;;5.00;99.90;;;;;;4999752;28;20426;-79
2021/12/05 08:29:54;;;;;;;10.80;3.17;;;5.30;99.90;;;;;;4968205;28;20420;-79
2021/12/05 08:32:32;;;;;;;19.93;3.03;;;6.00;99.90;;;;;;5002191;28;20425;-79
2021/12/05 08:35:15;;;;;;;4.83;3.07;;;6.10;99.90;;;;;;5003678;28;20418;-79
2021/12/05 08:40:49;;;;;;;5.37;2.73;;;5.80;99.90;;;;;;4983341;28;20567;-79
2021/12/05 08:43:46;;;;;;;7.90;3.13;;;5.30;99.90;;;;;;4966842;28;20558;-79
2021/12/05 08:46:23;;;;;;;3.57;2.30;;;5.70;99.90;;;;;;4985084;28;20893;-79
2021/12/05 09:24:17;;;;;;;7.00;2.70;;;7.50;99.90;;;;;;4985327;28;20405;-79
2021/12/05 09:29:58;;;;;;;10.50;2.73;;;7.90;99.90;;;;;;5000187;28;20391;-79
2021/12/05 10:01:59;;;;;;;5.70;3.23;;;10.60;99.90;;;;;;4966416;28;20462;-79
2021/12/05 10:07:23;;;;;;;8.03;3.07;;;10.70;99.90;;;;;;4941001;29;20795;-79
2021/12/05 10:15:42;;;;;;;3.40;3.10;;;11.20;99.90;;;;;;4966152;29;20392;-79
2021/12/05 10:27:09;;;;;;;5.77;2.67;;;8.30;99.90;;;;;;4964440;29;20407;-79
2021/12/05 10:38:04;;;;;;;7.03;2.63;;;7.90;99.90;;;;;;5007702;28;20760;-79
2021/12/05 10:40:36;;;;;;;5.40;2.70;;;8.90;99.90;;;;;;5023904;28;20447;-79
2021/12/05 10:43:10;;;;;;;2.47;2.20;;;9.80;99.90;;;;;;5007472;28;20857;-79
2021/12/05 10:45:42;;;;;;;5.73;2.83;;;9.60;99.90;;;;;;4974550;28;20833;-79
2021/12/05 10:48:20;;;;;;;3.67;3.00;;;9.30;99.90;;;;;;4968409;28;21014;-79
2021/12/05 10:50:49;;;;;;;4.27;2.47;;;8.60;99.90;;;;;;4971074;28;20416;-79
2021/12/05 10:53:39;;;;;;;4.40;2.80;;;8.50;99.90;;;;;;4952372;28;20399;-79
2021/12/05 10:56:13;;;;;;;6.47;2.83;;;8.60;99.90;;;;;;4956341;28;20421;-80
2021/12/05 10:59:02;;;;;;;9.43;3.97;;;7.80;99.90;;;;;;4970555;28;20449;-80
2021/12/05 11:01:47;;;;;;;4.37;2.97;;;7.70;99.90;;;;;;4972292;28;20410;-80
2021/12/05 11:04:24;;;;;;;2.97;2.77;;;7.50;99.90;;;;;;4968947;28;20460;-80
2021/12/05 11:07:01;;;;;;;4.20;2.70;;;7.10;99.90;;;;;;4991758;28;20891;-78
2021/12/05 11:09:34;;;;;;;2.77;2.43;;;7.10;99.90;;;;;;4954497;29;20389;-80
2021/12/05 11:12:08;;;;;;;2.90;2.23;;;7.00;99.90;;;;;;4945863;28;20504;-80
2021/12/05 11:14:39;;;;;;;2.40;2.20;;;6.70;99.90;;;;;;4951150;28;20385;-80
2021/12/05 11:17:09;;;;;;;2.70;2.30;;;6.60;99.90;;;;;;4983800;28;20440;-80
2021/12/05 11:19:54;;;;;;;3.53;2.77;;;6.30;99.90;;;;;;4980206;28;20402;-80
2021/12/05 11:22:25;;;;;;;2.07;1.87;;;6.60;99.90;;;;;;5026873;28;20409;-80
2021/12/05 11:24:58;;;;;;;8.33;3.40;;;6.60;99.90;;;;;;5027958;28;20390;-79
2021/12/05 11:27:29;;;;;;;5.80;2.33;;;9.30;99.90;;;;;;5047591;28;20486;-79
2021/12/05 11:30:18;;;;;;;4.03;2.27;;;11.50;99.90;;;;;;5030856;28;20499;-79
2021/12/05 11:33:12;;;;;;;3.83;2.27;;;13.40;99.90;;;;;;5015342;28;20370;-79
2021/12/05 11:36:01;;;;;;;3.80;2.80;;;14.70;99.90;;;;;;5042197;28;20414;-79
2021/12/05 11:38:33;;;;;;;3.57;3.10;;;15.80;99.90;;;;;;5009565;28;20437;-80
2021/12/05 11:41:10;;;;;;;2.57;1.70;;;16.50;99.90;;;;;;5021924;28;20402;-79
2021/12/05 11:43:58;;;;;;;2.17;2.00;;;14.20;99.90;;;;;;5045231;28;20388;-79
2021/12/05 11:46:32;;;;;;;3.57;2.03;;;15.70;99.90;;;;;;4999998;28;20479;-79
2021/12/05 11:49:06;;;;;;;3.50;2.80;;;13.80;99.90;;;;;;5046373;28;20442;-77
2021/12/05 11:51:37;;;;;;;5.00;2.50;;;12.50;99.90;;;;;;5054836;28;20375;-78
2021/12/05 11:54:09;;;;;;;2.10;1.90;;;11.10;99.90;;;;;;5037727;28;20440;-79
2021/12/05 11:56:49;;;;;;;2.80;2.23;;;10.10;99.90;;;;;;5057362;28;20392;-79
2021/12/05 11:59:36;;;;;;;6.57;3.10;;;9.60;99.90;;;;;;5056956;28;20388;-78
2021/12/05 12:02:10;;;;;;;3.60;2.67;;;9.60;99.90;;;;;;5048068;28;20477;-79
2021/12/05 12:04:44;;;;;;;2.73;2.23;;;8.90;99.90;;;;;;5029588;28;20412;-79
2021/12/05 12:07:24;;;;;;;3.17;2.20;;;8.20;99.90;;;;;;4988276;28;20457;-80
2021/12/05 12:09:54;;;;;;;7.13;2.60;;;7.80;99.90;;;;;;5000908;28;20393;-79
2021/12/05 12:12:20;;;;;;;4.50;3.10;;;7.70;99.90;;;;;;4963682;28;20405;-79
2021/12/05 12:14:47;;;;;;;4.17;2.93;;;7.40;99.90;;;;;;4962978;28;20690;-79
2021/12/05 12:17:16;;;;;;;4.00;2.40;;;7.30;99.90;;;;;;4995983;28;20435;-79
2021/12/05 12:19:47;;;;;;;3.77;2.40;;;7.00;99.90;;;;;;4979123;28;20496;-79
2021/12/05 12:22:16;;;;;;;2.30;2.20;;;6.80;99.90;;;;;;4978856;28;20427;-80
2021/12/05 12:24:42;;;;;;;3.63;3.30;;;6.70;99.90;;;;;;4978922;28;20372;-80
2021/12/05 12:27:09;;;;;;;4.53;2.83;;;6.50;99.90;;;;;;4978665;28;20395;-79
2021/12/05 12:29:37;;;;;;;6.93;3.80;;;6.60;99.90;;;;;;4995211;28;20430;-78
2021/12/05 12:32:12;;;;;;;3.10;2.43;;;6.30;99.90;;;;;;4977868;28;20395;-80
2021/12/05 12:34:40;;;;;;;3.53;2.87;;;6.30;99.90;;;;;;4979311;28;20389;-79
2021/12/05 12:37:07;;;;;;;3.10;2.80;;;6.20;99.90;;;;;;4979234;28;20402;-79
2021/12/05 12:39:37;;;;;;;7.13;3.40;;;6.00;99.90;;;;;;4982590;28;20412;-79
2021/12/05 12:42:23;;;;;;;2.37;2.17;;;5.90;99.90;;;;;;5000028;28;20409;-79
2021/12/05 12:45:06;;;;;;;3.63;3.00;;;5.90;99.90;;;;;;5017055;28;20375;-81
2021/12/05 12:47:35;;;;;;;6.50;4.13;;;5.90;99.90;;;;;;5022319;28;20431;-80
2021/12/05 12:50:24;;;;;;;3.47;3.17;;;5.80;99.90;;;;;;4999697;28;20371;-81
2021/12/05 12:53:04;;;;;;;8.40;3.03;;;5.80;99.90;;;;;;5014765;28;20385;-80
2021/12/05 12:55:35;;;;;;;2.60;2.40;;;5.70;99.90;;;;;;4998749;28;20394;-80
2021/12/05 12:58:06;;;;;;;2.47;2.27;;;5.80;99.90;;;;;;4998400;28;20443;-79
2021/12/05 13:00:35;;;;;;;3.30;3.00;;;5.70;99.90;;;;;;5014857;28;20479;-80
2021/12/05 13:03:14;;;;;;;4.20;3.53;;;5.60;99.90;;;;;;4998212;28;20526;-80
2021/12/05 13:07:16;;;;;;;6.83;3.00;;;5.70;99.90;;;;;;4998450;28;20370;-80
2021/12/05 13:11:11;;;;;;;3.13;2.40;;;5.70;99.90;;;;;;5017465;28;20405;-79
2021/12/05 13:13:44;;;;;;;3.97;3.10;;;5.70;99.90;;;;;;5001213;28;20368;-80
2021/12/05 13:16:19;;;;;;;4.10;2.30;;;5.70;99.90;;;;;;5017363;28;20422;-79
2021/12/05 13:18:48;;;;;;;7.40;3.47;;;5.90;99.90;;;;;;5001262;28;20401;-80
2021/12/05 13:21:29;;;;;;;4.17;3.30;;;5.90;99.90;;;;;;5039667;28;20425;-79
2021/12/05 13:23:56;;;;;;;4.23;3.00;;;5.80;99.90;;;;;;5057038;28;20460;-79
2021/12/05 13:26:39;;;;;;;4.90;3.47;;;5.90;99.90;;;;;;5019479;28;20430;-79
2021/12/05 13:29:25;;;;;;;5.90;2.37;;;5.90;99.90;;;;;;5017530;28;20448;-78
2021/12/05 13:32:13;;;;;;;3.63;3.27;;;5.80;99.90;;;;;;5035078;28;20424;-79
2021/12/05 13:34:52;;;;;;;4.10;3.67;;;5.80;99.90;;;;;;5049620;28;20847;-79
2021/12/05 13:37:23;;;;;;;9.37;3.50;;;5.80;99.90;;;;;;5051965;28;20378;-79
2021/12/05 13:40:04;;;;;;;4.03;2.93;;;5.80;99.90;;;;;;5035591;28;20381;-78
2021/12/05 13:42:42;;;;;;;6.83;4.07;;;6.00;99.90;;;;;;5037081;28;20399;-79
2021/12/05 13:45:30;;;;;;;8.20;3.90;;;6.10;99.90;;;;;;5041380;28;20399;-79
2021/12/05 13:48:30;;;;;;;2.90;2.37;;;6.20;99.90;;;;;;5042222;28;20917;-79
2021/12/05 13:51:39;;;;;;;4.60;2.10;;;5.90;99.90;;;;;;4968799;28;20742;-79
2021/12/05 13:54:06;;;;;;;3.40;2.73;;;5.70;99.90;;;;;;4922998;29;20395;-79
2021/12/05 13:56:34;;;;;;;6.07;2.70;;;5.90;99.90;;;;;;4920186;29;20742;-78
2021/12/05 13:59:06;;;;;;;4.67;3.37;;;5.90;99.90;;;;;;4903021;29;20396;-79
2021/12/05 14:01:46;;;;;;;5.53;3.27;;;5.60;99.90;;;;;;4885290;29;20427;-78
2021/12/05 14:04:27;;;;;;;2.87;2.67;;;5.70;99.90;;;;;;4881260;29;20385;-78
2021/12/05 14:07:10;;;;;;;3.47;3.10;;;5.60;99.90;;;;;;4843302;29;20477;-78
2021/12/05 14:09:47;;;;;;;2.50;2.30;;;5.60;99.90;;;;;;4829877;29;20403;-79
2021/12/05 14:12:18;;;;;;;3.63;3.00;;;5.70;99.90;;;;;;4829983;29;20436;-79
2021/12/05 14:14:51;;;;;;;20.83;2.83;;;5.90;99.90;;;;;;4840314;29;20452;-79
2021/12/05 14:17:25;;;;;;;3.93;2.23;;;5.70;99.90;;;;;;4840421;29;20393;-79
2021/12/05 14:19:58;;;;;;;5.07;3.57;;;5.70;99.90;;;;;;4852884;29;20430;-79
2021/12/05 14:22:29;;;;;;;5.13;2.73;;;5.60;99.90;;;;;;4884555;29;20452;-78
2021/12/05 14:25:18;;;;;;;4.07;3.73;;;5.60;99.90;;;;;;4901031;29;20434;-79
2021/12/05 14:27:53;;;;;;;3.97;3.60;;;5.60;99.90;;;;;;4879390;29;20470;-79
2021/12/05 14:30:38;;;;;;;3.40;3.20;;;5.80;99.90;;;;;;4881589;29;20484;-79
2021/12/05 14:33:05;;;;;;;6.50;3.43;;;5.90;99.90;;;;;;4883054;29;20397;-78
2021/12/05 14:35:38;;;;;;;8.73;3.50;;;5.90;99.90;;;;;;4885177;29;20384;-79
2021/12/05 14:38:12;;;;;;;10.10;3.57;;;5.90;99.90;;;;;;4913893;29;20416;-79
2021/12/05 14:40:43;;;;;;;3.23;3.03;;;5.90;99.90;;;;;;4905075;29;20391;-79
2021/12/05 14:43:12;;;;;;;4.33;2.70;;;5.70;99.90;;;;;;4909975;29;20413;-78
2021/12/05 14:45:40;;;;;;;4.43;2.93;;;5.80;99.90;;;;;;4894159;29;20388;-79
2021/12/05 14:48:12;;;;;;;4.00;2.73;;;5.70;99.90;;;;;;4888893;29;20474;-78
2021/12/05 14:50:41;;;;;;;3.80;2.90;;;5.60;99.90;;;;;;4899438;29;20389;-78
2021/12/05 14:53:10;;;;;;;13.43;4.53;;;5.50;99.90;;;;;;4892653;29;20387;-78
2021/12/05 14:55:37;;;;;;;3.83;3.43;;;5.50;99.90;;;;;;4912800;29;20399;-78
2021/12/05 14:58:06;;;;;;;3.00;2.80;;;5.50;99.90;;;;;;4957377;29;20415;-78
2021/12/05 15:00:37;;;;;;;2.63;2.47;;;5.40;99.90;;;;;;4956674;29;20394;-78
2021/12/05 15:03:09;;;;;;;3.17;2.83;;;5.30;99.90;;;;;;4959474;29;20387;-79
2021/12/05 15:05:41;;;;;;;3.60;3.30;;;5.30;99.90;;;;;;4965779;28;20394;-79
2021/12/05 15:08:10;;;;;;;3.10;2.80;;;5.40;99.90;;;;;;4967255;29;20513;-80
2021/12/05 15:10:38;;;;;;;9.10;3.37;;;5.40;99.90;;;;;;4966737;28;20403;-79
2021/12/05 15:13:05;;;;;;;9.43;5.80;;;5.50;99.90;;;;;;4967923;28;20392;-79
2021/12/05 15:15:31;;;;;;;4.10;3.47;;;5.50;99.90;;;;;;4981366;28;20396;-78
2021/12/05 15:17:58;;;;;;;5.40;3.77;;;5.30;99.90;;;;;;4966099;28;20820;-79
2021/12/05 15:20:29;;;;;;;3.97;3.00;;;5.40;99.90;;;;;;4963717;28;20481;-79
2021/12/05 15:23:04;;;;;;;3.20;2.57;;;5.50;99.90;;;;;;4965469;28;20513;-79
2021/12/05 15:25:35;;;;;;;8.50;3.10;;;5.40;99.90;;;;;;4967773;29;20449;-79
2021/12/05 15:28:05;;;;;;;4.30;3.03;;;5.40;99.90;;;;;;4975055;28;20413;-80
2021/12/05 15:30:37;;;;;;;4.10;3.07;;;5.20;99.90;;;;;;4976163;28;20395;-78
2021/12/05 15:33:12;;;;;;;3.77;3.47;;;5.20;99.90;;;;;;4979947;28;20384;-78
2021/12/05 15:35:43;;;;;;;6.30;3.40;;;5.20;99.90;;;;;;4975773;28;20443;-79
2021/12/05 15:38:14;;;;;;;5.33;3.40;;;5.20;99.90;;;;;;4967621;28;20758;-79
2021/12/05 15:40:47;;;;;;;6.40;3.80;;;5.10;99.90;;;;;;4984751;28;20384;-79
2021/12/05 15:43:21;;;;;;;6.77;5.73;;;5.20;99.90;;;;;;4986058;28;20421;-79
2021/12/05 15:45:52;;;;;;;3.50;3.20;;;5.20;99.90;;;;;;4985088;28;20429;-79
2021/12/05 15:48:34;;;;;;;3.77;3.47;;;5.30;99.90;;;;;;4971758;28;20849;-79
2021/12/05 15:51:03;;;;;;;6.00;4.50;;;5.20;99.90;;;;;;5002051;28;20472;-78
2021/12/05 15:53:35;;;;;;;13.80;5.50;;;5.20;99.90;;;;;;4969944;28;20380;-80
2021/12/05 15:56:05;;;;;;;8.47;6.43;;;5.30;99.90;;;;;;4994789;28;20383;-79
2021/12/05 15:58:44;;;;;;;15.93;8.03;;;5.30;99.90;;;;;;5023541;28;20370;-79
2021/12/05 16:01:15;;;;;;;4.97;4.47;;;5.40;99.90;;;;;;5039885;28;20390;-79
2021/12/05 16:04:03;;;;;;;7.50;3.63;;;5.20;99.90;;;;;;5024884;28;20374;-79
2021/12/05 16:06:39;;;;;;;4.50;3.90;;;5.20;99.90;;;;;;5026224;28;20382;-79
2021/12/05 16:09:21;;;;;;;4.27;3.90;;;5.00;99.90;;;;;;4975756;28;20470;-79
2021/12/05 16:11:50;;;;;;;4.00;3.60;;;5.00;99.90;;;;;;4998928;28;20388;-79
2021/12/05 16:14:29;;;;;;;3.90;3.33;;;5.00;99.90;;;;;;5017338;28;20384;-79
2021/12/05 16:16:54;;;;;;;6.97;3.90;;;5.10;99.90;;;;;;4996536;28;20505;-79
2021/12/05 16:19:20;;;;;;;7.17;4.10;;;5.20;99.90;;;;;;4982294;28;20428;-79
2021/12/05 16:21:46;;;;;;;5.13;4.63;;;5.30;99.90;;;;;;4945330;29;20613;-79
2021/12/05 16:24:15;;;;;;;13.03;5.87;;;5.50;99.90;;;;;;4961492;28;20275;-79
2021/12/05 16:26:45;;;;;;;6.00;3.60;;;5.40;99.90;;;;;;4968493;28;20187;-77
2021/12/05 16:29:16;;;;;;;5.00;3.60;;;5.30;99.90;;;;;;4992458;28;20433;-79
2021/12/05 16:31:53;;;;;;;4.23;3.20;;;5.10;99.90;;;;;;4924808;29;20411;-79
2021/12/05 16:34:26;;;;;;;4.40;3.90;;;5.10;99.90;;;;;;4907861;29;20420;-79
2021/12/05 16:36:56;;;;;;;4.63;4.23;;;4.90;99.90;;;;;;4940309;29;20419;-79
2021/12/05 16:39:30;;;;;;;15.10;5.00;;;4.90;99.90;;;;;;4940876;29;20476;-79
2021/12/05 16:42:03;;;;;;;13.10;4.33;;;4.90;99.90;;;;;;4940533;29;20488;-79
2021/12/05 16:44:33;;;;;;;9.13;4.80;;;4.90;99.90;;;;;;4956992;29;20832;-79
2021/12/05 16:47:03;;;;;;;9.07;4.57;;;5.00;99.90;;;;;;4939267;29;20917;-79
2021/12/05 16:49:35;;;;;;;4.43;3.80;;;4.90;99.90;;;;;;4933941;29;20462;-79
2021/12/05 16:52:04;;;;;;;3.30;3.03;;;4.90;99.90;;;;;;4927687;29;20378;-79
2021/12/05 16:54:42;;;;;;;5.37;4.37;;;4.90;99.90;;;;;;4974719;28;20395;-79
2021/12/05 16:57:16;;;;;;;3.90;3.60;;;5.00;99.90;;;;;;5015371;28;20437;-79
2021/12/05 16:59:50;;;;;;;3.33;2.80;;;4.90;99.90;;;;;;4995875;28;20373;-79
2021/12/05 17:02:24;;;;;;;5.23;4.60;;;5.00;99.90;;;;;;4997226;28;20409;-79
2021/12/05 17:04:59;;;;;;;4.33;3.70;;;5.00;99.90;;;;;;5009484;28;20412;-79
2021/12/05 17:07:49;;;;;;;8.43;4.47;;;5.10;99.90;;;;;;5013821;28;20398;-79
2021/12/05 17:10:31;;;;;;;4.73;4.30;;;5.10;99.90;;;;;;5002392;28;20719;-79
2021/12/05 17:13:11;;;;;;;5.00;4.50;;;5.10;99.90;;;;;;5034730;28;20365;-79
2021/12/05 17:15:45;;;;;;;4.23;3.33;;;4.90;99.90;;;;;;5019182;28;20520;-79
2021/12/05 17:18:29;;;;;;;5.00;4.00;;;4.90;99.90;;;;;;5000010;28;20368;-79
2021/12/05 17:21:00;;;;;;;8.10;5.07;;;4.70;99.90;;;;;;5011319;28;20426;-79
2021/12/05 17:23:32;;;;;;;7.57;4.97;;;4.90;99.90;;;;;;5004412;28;20897;-78
2021/12/05 17:26:17;;;;;;;9.23;3.93;;;5.00;99.90;;;;;;5037518;28;20454;-79
2021/12/05 17:28:48;;;;;;;6.57;4.53;;;5.20;99.90;;;;;;5021078;28;20463;-79
2021/12/05 17:31:17;;;;;;;12.67;6.80;;;5.20;99.90;;;;;;5037907;28;20391;-79
2021/12/05 17:33:47;;;;;;;8.37;5.10;;;5.00;99.90;;;;;;5021502;28;20390;-79